createdAt,value
2023-02-03T00:01:17.775Z,99.10
2023-02-03T00:03:45.660Z,99.10
2023-02-03T00:06:13.718Z,99.10
2023-02-03T00:08:42.138Z,99.10
2023-02-03T00:11:11.452Z,99.10
2023-02-03T00:13:39.377Z,99.10
2023-02-03T00:16:07.838Z,99.10
2023-02-03T00:18:35.729Z,99.10
2023-02-03T00:21:03.728Z,99.10
2023-02-03T00:23:32.109Z,99.10
2023-02-03T00:26:07.103Z,99.10
2023-02-03T00:28:36.513Z,99.40
2023-02-03T00:31:04.590Z,99.10
2023-02-03T00:33:33.739Z,99.10
2023-02-03T00:36:06.371Z,99.10
2023-02-03T00:38:34.299Z,99.10
2023-02-03T00:41:02.176Z,99.10
2023-02-03T00:43:30.348Z,99.10
2023-02-03T00:45:59.639Z,99.20
2023-02-03T00:48:27.583Z,99.10
2023-02-03T00:50:55.535Z,99.10
2023-02-03T00:53:23.507Z,99.10
2023-02-03T00:55:52.086Z,99.10
2023-02-03T00:58:20.016Z,99.10
2023-02-03T01:00:47.915Z,99.10
2023-02-03T01:03:17.800Z,99.20
2023-02-03T01:05:45.704Z,99.20
2023-02-03T01:08:13.674Z,99.20
2023-02-03T01:10:41.574Z,99.10
2023-02-03T01:13:09.462Z,99.20
2023-02-03T01:15:37.365Z,99.20
2023-02-03T01:18:05.454Z,99.20
2023-02-03T01:20:34.707Z,99.20
2023-02-03T01:23:02.605Z,99.20
2023-02-03T01:25:30.471Z,99.20
2023-02-03T01:27:58.463Z,99.20
2023-02-03T01:30:26.623Z,99.20
2023-02-03T01:32:54.711Z,99.20
2023-02-03T01:35:22.620Z,99.20
2023-02-03T01:37:52.088Z,99.20
2023-02-03T01:40:20.370Z,99.20
2023-02-03T01:42:48.343Z,99.20
2023-02-03T01:45:16.202Z,99.20
2023-02-03T01:47:50.601Z,99.20
2023-02-03T01:50:21.396Z,99.20
2023-02-03T01:52:54.944Z,99.20
2023-02-03T01:55:27.173Z,99.20
2023-02-03T01:57:59.859Z,99.20
2023-02-03T02:00:28.887Z,99.20
2023-02-03T02:03:00.201Z,99.30
2023-02-03T02:05:33.449Z,99.20
2023-02-03T02:08:04.363Z,99.20
2023-02-03T02:10:33.494Z,99.20
2023-02-03T02:13:02.931Z,99.30
2023-02-03T02:15:42.771Z,99.30
2023-02-03T02:18:42.836Z,99.30
2023-02-03T02:21:33.933Z,99.30
2023-02-03T02:24:38.080Z,99.30
2023-02-03T02:27:10.879Z,99.30
2023-02-03T02:30:13.073Z,99.30
2023-02-03T02:32:52.410Z,99.30
2023-02-03T02:35:33.445Z,99.30
2023-02-03T02:38:04.722Z,99.30
2023-02-03T02:40:37.722Z,99.30
2023-02-03T02:43:11.893Z,99.30
2023-02-03T02:45:46.967Z,99.30
2023-02-03T02:48:22.902Z,99.20
2023-02-03T02:50:54.764Z,99.20
2023-02-03T02:53:26.086Z,99.20
2023-02-03T02:55:56.630Z,99.30
2023-02-03T02:58:25.780Z,99.20
2023-02-03T03:00:53.649Z,99.30
2023-02-03T03:03:25.196Z,99.20
2023-02-03T03:05:56.038Z,99.20
2023-02-03T03:08:29.458Z,99.20
2023-02-03T03:10:59.049Z,99.10
2023-02-03T03:13:32.915Z,99.10
2023-02-03T03:16:02.648Z,99.10
2023-02-03T03:18:37.342Z,99.20
2023-02-03T03:21:07.859Z,99.20
2023-02-03T03:23:40.187Z,99.20
2023-02-03T03:26:14.902Z,99.20
2023-02-03T03:28:48.951Z,99.20
2023-02-03T03:31:18.100Z,99.20
2023-02-03T03:33:48.945Z,99.30
2023-02-03T03:36:25.014Z,99.30
2023-02-03T03:38:58.283Z,99.20
2023-02-03T03:41:35.044Z,99.30
2023-02-03T03:44:06.323Z,99.30
2023-02-03T03:46:41.001Z,99.30
2023-02-03T03:49:13.099Z,99.30
2023-02-03T03:51:45.876Z,99.30
2023-02-03T03:54:16.867Z,99.30
2023-02-03T03:56:50.600Z,99.30
2023-02-03T03:59:22.262Z,99.30
2023-02-03T04:01:52.155Z,99.30
2023-02-03T04:04:24.204Z,99.30
2023-02-03T04:06:54.735Z,99.30
2023-02-03T04:09:22.658Z,99.30
2023-02-03T04:12:03.092Z,99.40
2023-02-03T04:14:32.361Z,99.30
2023-02-03T04:17:00.948Z,99.30
2023-02-03T04:19:30.307Z,99.30
2023-02-03T04:21:58.395Z,99.30
2023-02-03T04:24:26.333Z,99.30
2023-02-03T04:26:54.237Z,99.30
2023-02-03T04:29:22.161Z,99.20
2023-02-03T04:31:50.123Z,99.20
2023-02-03T04:34:18.373Z,99.20
2023-02-03T04:36:47.590Z,99.20
2023-02-03T04:39:15.445Z,99.20
2023-02-03T04:41:43.342Z,99.20
2023-02-03T04:44:11.250Z,99.20
2023-02-03T04:46:39.120Z,99.20
2023-02-03T04:49:07.081Z,99.20
2023-02-03T04:51:34.956Z,99.20
2023-02-03T04:54:04.277Z,99.20
2023-02-03T04:56:32.136Z,99.20
2023-02-03T04:59:00.000Z,99.20
2023-02-03T05:01:27.992Z,99.20
2023-02-03T05:03:55.951Z,99.20
2023-02-03T05:06:25.319Z,99.20
2023-02-03T05:08:53.586Z,99.20
2023-02-03T05:11:23.274Z,99.10
2023-02-03T05:13:51.386Z,99.10
2023-02-03T05:16:19.358Z,99.20
2023-02-03T05:18:47.250Z,99.20
2023-02-03T05:21:15.171Z,99.20
2023-02-03T05:23:43.080Z,99.20
2023-02-03T05:26:11.278Z,99.20
2023-02-03T05:28:40.664Z,99.20
2023-02-03T05:31:08.603Z,99.50
2023-02-03T05:33:36.627Z,99.20
2023-02-03T05:36:04.998Z,99.10
2023-02-03T05:38:32.878Z,99.20
2023-02-03T05:41:18.251Z,99.10
2023-02-03T05:43:47.471Z,99.10
2023-02-03T05:46:15.412Z,99.00
2023-02-03T05:48:43.298Z,99.00
2023-02-03T05:51:11.199Z,99.00
2023-02-03T05:53:39.092Z,99.00
2023-02-03T05:56:07.555Z,98.90
2023-02-03T05:58:35.426Z,98.90
2023-02-03T06:01:04.903Z,98.90
2023-02-03T06:03:32.829Z,98.90
2023-02-03T06:06:00.814Z,98.80
2023-02-03T06:08:28.812Z,98.70
2023-02-03T06:11:00.339Z,98.70
2023-02-03T06:13:28.936Z,98.60
2023-02-03T06:15:57.279Z,97.90
2023-02-03T06:18:26.619Z,97.90
2023-02-03T06:20:54.647Z,97.90
2023-02-03T06:23:22.601Z,97.90
2023-02-03T06:25:51.738Z,98.00
2023-02-03T06:28:19.925Z,98.10
2023-02-03T06:30:52.141Z,98.20
2023-02-03T06:33:20.157Z,98.00
2023-02-03T06:35:49.338Z,98.00
2023-02-03T06:38:17.213Z,98.00
2023-02-03T06:40:47.761Z,98.00
2023-02-03T06:43:16.171Z,98.10
2023-02-03T06:45:47.229Z,97.90
2023-02-03T06:48:15.829Z,97.90
2023-02-03T06:50:43.667Z,98.00
2023-02-03T06:53:13.017Z,97.90
2023-02-03T06:55:40.909Z,97.90
2023-02-03T06:58:08.929Z,98.00
2023-02-03T07:00:36.882Z,98.00
2023-02-03T07:03:05.053Z,98.00
2023-02-03T07:05:32.978Z,98.00
2023-02-03T07:08:00.865Z,98.00
2023-02-03T07:10:30.276Z,97.90
2023-02-03T07:13:03.911Z,97.90
2023-02-03T07:15:31.947Z,97.90
2023-02-03T07:18:00.032Z,97.90
2023-02-03T07:20:30.761Z,97.70
2023-02-03T07:22:59.355Z,97.70
2023-02-03T07:25:28.907Z,97.50
2023-02-03T07:27:56.831Z,97.20
2023-02-03T07:30:24.854Z,97.00
2023-02-03T07:32:53.774Z,97.00
2023-02-03T07:35:22.059Z,96.50
2023-02-03T07:37:49.925Z,96.30
2023-02-03T07:40:18.459Z,96.40
2023-02-03T07:42:49.678Z,96.20
2023-02-03T07:45:18.941Z,96.20
2023-02-03T07:47:47.122Z,96.20
2023-02-03T07:50:15.159Z,95.90
2023-02-03T07:52:43.157Z,95.60
2023-02-03T07:55:11.375Z,95.50
2023-02-03T07:57:43.331Z,95.60
2023-02-03T08:00:15.469Z,95.70
2023-02-03T08:02:43.844Z,95.90
2023-02-03T08:05:13.138Z,95.40
2023-02-03T08:07:41.345Z,95.20
2023-02-03T08:10:10.530Z,95.20
2023-02-03T08:12:38.397Z,95.20
2023-02-03T08:15:08.379Z,95.30
2023-02-03T08:17:40.075Z,95.60
2023-02-03T08:20:08.944Z,95.70
2023-02-03T08:22:36.881Z,95.30
2023-02-03T08:25:05.295Z,95.00
2023-02-03T08:27:33.770Z,95.10
2023-02-03T08:30:01.654Z,95.10
2023-02-03T08:32:29.791Z,94.50
2023-02-03T08:34:59.017Z,94.20
2023-02-03T08:37:28.241Z,94.10
2023-02-03T08:39:56.408Z,94.20
2023-02-03T08:42:24.262Z,94.20
2023-02-03T08:44:52.305Z,94.40
2023-02-03T08:47:20.207Z,94.70
2023-02-03T08:49:48.213Z,95.00
2023-02-03T08:52:19.126Z,95.00
2023-02-03T08:54:48.184Z,95.30
2023-02-03T08:57:16.168Z,95.00
2023-02-03T08:59:45.200Z,94.60
2023-02-03T09:02:16.841Z,94.60
2023-02-03T09:04:45.213Z,94.20
2023-02-03T09:07:13.419Z,94.30
2023-02-03T09:09:42.687Z,93.90
2023-02-03T09:12:12.269Z,94.00
2023-02-03T09:14:40.353Z,94.20
2023-02-03T09:17:09.214Z,94.20
2023-02-03T09:19:37.394Z,94.20
2023-02-03T09:22:05.438Z,94.10
2023-02-03T09:24:33.529Z,94.00
2023-02-03T09:27:02.728Z,93.90
2023-02-03T09:29:30.637Z,93.90
2023-02-03T09:31:58.587Z,94.20
2023-02-03T09:34:26.511Z,94.00
2023-02-03T09:36:54.371Z,94.00
2023-02-03T09:39:22.227Z,93.70
2023-02-03T09:42:09.192Z,93.50
2023-02-03T09:44:46.208Z,93.70
2023-02-03T09:47:17.041Z,93.30
2023-02-03T09:49:50.349Z,92.80
2023-02-03T09:52:20.344Z,93.00
2023-02-03T09:54:55.011Z,93.30
2023-02-03T09:57:26.784Z,92.70
2023-02-03T09:59:57.347Z,92.60
2023-02-03T10:02:56.171Z,92.00
2023-02-03T10:05:31.695Z,92.10
2023-02-03T10:08:05.826Z,91.20
2023-02-03T10:10:40.423Z,90.80
2023-02-03T10:13:21.868Z,90.80
2023-02-03T10:16:13.904Z,90.60
2023-02-03T10:18:48.088Z,90.40
2023-02-03T10:21:20.660Z,89.10
2023-02-03T10:23:51.223Z,89.80
2023-02-03T10:26:22.723Z,89.60
2023-02-03T10:28:56.627Z,90.10
2023-02-03T10:31:27.577Z,89.30
2023-02-03T10:34:00.834Z,88.30
2023-02-03T10:36:39.746Z,87.30
2023-02-03T10:39:18.479Z,86.80
2023-02-03T10:41:46.444Z,86.90
2023-02-03T10:44:16.301Z,86.50
2023-02-03T10:46:45.311Z,86.00
2023-02-03T10:49:14.651Z,86.60
2023-02-03T10:51:48.736Z,86.00
2023-02-03T10:54:30.458Z,85.70
2023-02-03T10:57:03.604Z,86.20
2023-02-03T10:59:35.348Z,86.50
2023-02-03T11:02:09.843Z,86.30
2023-02-03T11:04:38.404Z,86.60
2023-02-03T11:07:08.809Z,86.60
2023-02-03T11:09:38.622Z,86.40
2023-02-03T11:12:13.972Z,86.60
2023-02-03T11:14:45.141Z,86.80
2023-02-03T11:17:18.437Z,86.60
2023-02-03T11:19:48.464Z,84.80
2023-02-03T11:22:29.654Z,85.80
2023-02-03T11:24:58.670Z,85.30
2023-02-03T11:27:30.611Z,86.70
2023-02-03T11:30:15.719Z,86.10
2023-02-03T11:32:44.885Z,86.80
2023-02-03T11:35:19.008Z,87.50
2023-02-03T11:37:48.265Z,87.60
2023-02-03T11:40:38.275Z,86.90
2023-02-03T11:43:17.461Z,87.40
2023-02-03T11:45:50.243Z,87.90
2023-02-03T11:48:28.277Z,89.10
2023-02-03T11:51:03.698Z,89.30
2023-02-03T11:53:55.139Z,90.50
2023-02-03T11:56:37.071Z,91.30
2023-02-03T11:59:25.024Z,91.40
2023-02-03T12:02:07.156Z,91.70
2023-02-03T12:05:01.045Z,91.00
2023-02-03T12:07:46.062Z,90.80
2023-02-03T12:10:29.840Z,91.20
2023-02-03T12:13:06.574Z,90.90
2023-02-03T12:15:51.481Z,91.10
2023-02-03T12:18:45.669Z,90.90
2023-02-03T12:21:34.820Z,91.40
2023-02-03T12:24:09.629Z,91.30
2023-02-03T12:26:47.663Z,90.80
2023-02-03T12:29:21.629Z,90.60
2023-02-03T12:31:55.991Z,90.60
2023-02-03T12:34:32.499Z,91.10
2023-02-03T12:37:06.555Z,91.30
2023-02-03T12:39:40.076Z,91.90
2023-02-03T12:42:16.071Z,91.50
2023-02-03T12:44:49.495Z,91.80
2023-02-03T12:47:27.098Z,92.30
2023-02-03T12:50:00.506Z,93.00
2023-02-03T12:52:33.399Z,93.40
2023-02-03T12:55:09.176Z,93.50
2023-02-03T12:57:41.682Z,94.00
2023-02-03T13:00:20.410Z,94.30
2023-02-03T13:03:03.332Z,94.50
2023-02-03T13:05:42.077Z,95.10
2023-02-03T13:08:17.863Z,95.60
2023-02-03T13:10:49.780Z,96.00
2023-02-03T13:13:27.378Z,96.30
2023-02-03T13:15:57.450Z,96.40
2023-02-03T13:18:30.195Z,96.50
2023-02-03T13:20:59.530Z,96.50
2023-02-03T13:23:28.350Z,96.10
2023-02-03T13:26:13.263Z,96.30
2023-02-03T13:29:00.273Z,96.40
2023-02-03T13:31:40.646Z,96.50
2023-02-03T13:34:30.914Z,96.50
2023-02-03T13:37:31.908Z,96.30
2023-02-03T13:40:18.717Z,96.20
2023-02-03T13:42:52.904Z,95.50
2023-02-03T13:45:28.359Z,95.60
2023-02-03T13:47:58.645Z,95.50
2023-02-03T13:50:30.522Z,95.50
2023-02-03T13:53:04.294Z,95.50
2023-02-03T13:55:39.297Z,95.50
2023-02-03T13:58:09.531Z,94.80
2023-02-03T14:01:22.476Z,95.50
2023-02-03T14:03:50.551Z,95.40
2023-02-03T14:06:54.805Z,94.80
2023-02-03T14:09:36.010Z,94.70
2023-02-03T14:12:37.491Z,94.80
2023-02-03T14:15:22.123Z,94.20
2023-02-03T14:18:01.511Z,94.70
2023-02-03T14:20:51.242Z,94.30
2023-02-03T14:23:30.598Z,94.70
2023-02-03T14:26:02.592Z,94.70
2023-02-03T14:28:39.875Z,95.10
2023-02-03T14:31:16.103Z,95.70
2023-02-03T14:33:53.889Z,95.90
2023-02-03T14:36:52.988Z,96.10
2023-02-03T14:39:41.179Z,96.20
2023-02-03T14:42:20.219Z,96.10
2023-02-03T14:45:02.491Z,96.30
2023-02-03T14:47:46.998Z,96.60
2023-02-03T14:50:38.209Z,96.70
2023-02-03T14:53:31.171Z,96.90
2023-02-03T14:56:12.783Z,96.90
2023-02-03T14:58:47.485Z,97.30
2023-02-03T15:01:28.875Z,97.50
2023-02-03T15:04:22.960Z,97.20
2023-02-03T15:06:52.655Z,97.40
2023-02-03T15:09:27.068Z,97.60
2023-02-03T15:11:54.917Z,97.60
2023-02-03T15:14:26.334Z,97.70
2023-02-03T15:16:57.574Z,97.80
2023-02-03T15:19:28.451Z,97.60
2023-02-03T15:21:56.970Z,97.50
2023-02-03T15:24:25.918Z,97.40
2023-02-03T15:26:55.450Z,97.60
2023-02-03T15:29:36.388Z,97.60
2023-02-03T15:32:10.779Z,97.80
2023-02-03T15:34:42.510Z,97.80
2023-02-03T15:37:16.683Z,97.90
2023-02-03T15:39:57.760Z,98.00
2023-02-03T15:42:30.692Z,98.10
2023-02-03T15:45:03.492Z,98.10
2023-02-03T15:47:35.554Z,98.10
2023-02-03T15:50:24.873Z,98.30
2023-02-03T15:52:55.961Z,98.30
2023-02-03T15:55:31.109Z,98.20
2023-02-03T15:57:59.203Z,98.30
2023-02-03T16:00:34.387Z,98.30
2023-02-03T16:03:04.356Z,98.30
2023-02-03T16:05:34.818Z,98.50
2023-02-03T16:08:42.604Z,98.50
2023-02-03T16:11:38.137Z,98.50
2023-02-03T16:14:08.567Z,98.50
2023-02-03T16:16:43.670Z,98.50
2023-02-03T16:19:18.523Z,98.40
2023-02-03T16:21:54.946Z,98.30
2023-02-03T16:24:37.508Z,98.30
2023-02-03T16:27:22.767Z,98.50
2023-02-03T16:30:08.321Z,98.50
2023-02-03T16:32:55.169Z,98.50
2023-02-03T16:35:40.829Z,98.20
2023-02-03T16:38:31.428Z,97.80
2023-02-03T16:41:16.989Z,97.60
2023-02-03T16:44:03.085Z,97.70
2023-02-03T16:46:48.703Z,98.00
2023-02-03T16:49:35.303Z,97.80
2023-02-03T16:52:06.413Z,97.60
2023-02-03T16:54:34.227Z,97.70
2023-02-03T16:57:02.056Z,97.50
2023-02-03T16:59:29.839Z,97.50
2023-02-03T17:01:57.787Z,97.60
2023-02-03T17:04:27.035Z,97.60
2023-02-03T17:06:54.909Z,97.70
2023-02-03T17:09:24.963Z,97.80
2023-02-03T17:11:52.858Z,98.00
2023-02-03T17:14:20.691Z,98.00
2023-02-03T17:16:48.608Z,98.00
2023-02-03T17:19:16.679Z,98.00
2023-02-03T17:21:45.837Z,98.00
2023-02-03T17:24:13.684Z,98.10
2023-02-03T17:26:41.547Z,98.00
2023-02-03T17:29:11.193Z,97.20
2023-02-03T17:31:39.249Z,96.80
2023-02-03T17:34:07.098Z,96.60
2023-02-03T17:36:35.037Z,95.70
2023-02-03T17:55:34.297Z,93.80
2023-02-03T17:58:02.335Z,93.00
2023-02-03T18:00:30.585Z,92.60
2023-02-03T18:02:58.683Z,92.40
2023-02-03T18:05:26.646Z,92.30
2023-02-03T18:07:54.526Z,92.30
2023-02-03T18:10:22.443Z,92.60
2023-02-03T18:12:51.655Z,92.70
2023-02-03T18:15:19.643Z,93.40
2023-02-03T18:17:47.493Z,92.80
2023-02-03T18:20:15.477Z,92.60
2023-02-03T18:22:45.210Z,92.00
2023-02-03T18:25:16.782Z,92.10
2023-02-03T18:27:45.024Z,91.70
2023-02-03T18:30:17.600Z,91.50
2023-02-03T18:32:47.066Z,91.00
2023-02-03T18:35:17.133Z,90.70
2023-02-03T18:37:45.054Z,88.80
2023-02-03T18:40:13.467Z,88.80
2023-02-03T18:42:41.309Z,86.30
2023-02-03T18:45:10.068Z,86.30
2023-02-03T18:47:39.332Z,83.90
2023-02-03T18:50:09.096Z,81.50
2023-02-03T18:52:37.640Z,81.00
2023-02-03T18:55:06.045Z,82.10
2023-02-03T18:57:33.926Z,83.70
2023-02-03T19:00:02.412Z,83.90
2023-02-03T19:02:30.297Z,84.80
2023-02-03T19:04:59.506Z,86.00
2023-02-03T19:07:27.544Z,87.10
2023-02-03T19:10:01.188Z,87.00
2023-02-03T19:12:29.056Z,86.40
2023-02-03T19:14:56.916Z,85.90
2023-02-03T19:17:24.831Z,86.50
2023-02-03T19:19:52.657Z,84.40
2023-02-03T19:22:21.825Z,84.70
2023-02-03T19:24:49.656Z,84.80
2023-02-03T19:27:17.471Z,85.90
2023-02-03T19:29:45.321Z,85.00
2023-02-03T19:32:13.406Z,85.80
2023-02-03T19:34:41.329Z,86.40
2023-02-03T19:37:09.598Z,86.10
2023-02-03T19:39:39.389Z,85.80
2023-02-03T19:42:07.220Z,83.50
2023-02-03T19:44:36.990Z,84.30
2023-02-03T19:47:05.409Z,84.10
2023-02-03T19:49:33.266Z,83.70
2023-02-03T19:52:01.164Z,84.40
2023-02-03T19:54:29.512Z,82.00
2023-02-03T19:56:58.673Z,82.40
2023-02-03T19:59:26.505Z,83.30
2023-02-03T20:01:55.393Z,84.20
2023-02-03T20:04:24.636Z,84.40
2023-02-03T20:06:52.502Z,85.00
2023-02-03T20:09:20.554Z,84.70
2023-02-03T20:11:48.515Z,85.00
2023-02-03T20:14:19.007Z,85.50
2023-02-03T20:16:50.515Z,85.60
2023-02-03T20:19:19.431Z,85.60
2023-02-03T20:21:47.800Z,85.10
2023-02-03T20:24:15.688Z,85.60
2023-02-03T20:26:43.577Z,86.40
2023-02-03T20:29:11.438Z,86.80
2023-02-03T20:31:40.682Z,85.60
2023-02-03T20:34:09.454Z,84.60
2023-02-03T20:36:37.276Z,85.40
2023-02-03T20:39:05.402Z,84.10
2023-02-03T20:41:33.221Z,83.40
2023-02-03T20:44:02.036Z,83.00
2023-02-03T20:46:29.956Z,83.80
2023-02-03T20:48:59.153Z,84.40
2023-02-03T20:51:27.020Z,84.30
2023-02-03T20:53:56.617Z,84.10
2023-02-03T20:56:25.163Z,84.10
2023-02-03T20:58:54.317Z,84.40
2023-02-03T21:01:23.301Z,83.60
2023-02-03T21:04:08.509Z,84.40
2023-02-03T21:06:37.701Z,83.80
2023-02-03T21:09:14.538Z,83.90
2023-02-03T21:11:42.491Z,82.90
2023-02-03T21:14:20.475Z,83.40
2023-02-03T21:16:48.857Z,83.00
2023-02-03T21:19:28.058Z,82.30
2023-02-03T21:21:57.339Z,82.50
2023-02-03T21:24:28.451Z,82.90
2023-02-03T21:26:57.473Z,83.20
2023-02-03T21:29:27.795Z,82.50
2023-02-03T21:31:56.003Z,82.00
2023-02-03T21:34:29.589Z,82.30
2023-02-03T21:36:59.923Z,81.10
2023-02-03T21:39:29.689Z,80.70
2023-02-03T21:41:58.114Z,80.70
2023-02-03T21:44:32.315Z,79.70
2023-02-03T21:47:05.071Z,80.60
2023-02-03T21:49:34.633Z,81.30
2023-02-03T21:52:03.824Z,78.50
2023-02-03T21:54:33.959Z,78.40
2023-02-03T21:57:02.596Z,78.00
2023-02-03T21:59:42.130Z,78.60
2023-02-03T22:02:45.213Z,79.10
2023-02-03T22:05:16.526Z,80.00
2023-02-03T22:07:45.732Z,80.50
2023-02-03T22:10:13.577Z,80.50
2023-02-03T22:12:41.404Z,80.40
2023-02-03T22:15:10.128Z,80.40
2023-02-03T22:17:38.232Z,81.00
2023-02-03T22:20:06.744Z,80.70
2023-02-03T22:22:34.679Z,80.80
2023-02-03T22:25:03.828Z,81.10
2023-02-03T22:27:32.572Z,81.40
2023-02-03T22:30:01.153Z,81.50
2023-02-03T22:32:29.364Z,81.50
2023-02-03T22:34:57.208Z,80.90
2023-02-03T22:37:25.006Z,80.40
2023-02-03T22:39:52.838Z,79.90
2023-02-03T22:42:22.356Z,80.40
2023-02-03T22:44:50.200Z,80.30
2023-02-03T22:47:18.123Z,80.10
2023-02-03T22:49:46.054Z,79.40
2023-02-03T22:52:13.874Z,79.00
2023-02-03T22:54:42.848Z,78.90
2023-02-03T22:57:10.928Z,79.70
2023-02-03T22:59:40.105Z,80.20
2023-02-03T23:02:07.984Z,80.20
2023-02-03T23:04:35.881Z,81.80
2023-02-03T23:07:03.718Z,81.20
2023-02-03T23:09:31.678Z,80.20
2023-02-03T23:11:59.653Z,79.00
2023-02-03T23:14:27.452Z,78.70
2023-02-03T23:16:56.671Z,76.30
2023-02-03T23:19:24.944Z,75.20
2023-02-03T23:21:52.852Z,75.50
2023-02-03T23:24:21.518Z,73.50
2023-02-03T23:26:50.293Z,73.70
2023-02-03T23:29:19.221Z,74.60
2023-02-03T23:31:47.207Z,73.80
2023-02-03T23:34:34.358Z,73.20
2023-02-03T23:37:02.319Z,73.20
2023-02-03T23:39:30.674Z,73.30
2023-02-03T23:41:59.059Z,70.30
2023-02-03T23:44:26.858Z,68.80
2023-02-03T23:46:54.656Z,68.00
2023-02-03T23:49:23.886Z,68.30
2023-02-03T23:51:51.730Z,68.70
2023-02-03T23:54:19.535Z,67.90
2023-02-03T23:56:47.350Z,67.50
2023-02-03T23:59:15.184Z,66.70
